sensor_id;sensor_type;location;lat;lon;timestamp;pressure;altitude;pressure_sealevel;temperature;humidity
59545;BME280;45368;55.002;-1.592;2023-07-29T00:00:10;99346.45;;;17.26;51.81
59545;BME280;45368;55.002;-1.592;2023-07-29T00:02:37;99348.01;;;16.78;53.52
59545;BME280;45368;55.002;-1.592;2023-07-29T00:05:05;99352.93;;;16.77;53.84
59545;BME280;45368;55.002;-1.592;2023-07-29T00:07:32;99347.19;;;16.97;53.42
59545;BME280;45368;55.002;-1.592;2023-07-29T00:10:00;99341.48;;;17.36;52.58
59545;BME280;45368;55.002;-1.592;2023-07-29T00:12:27;99330.15;;;17.12;53.05
59545;BME280;45368;55.002;-1.592;2023-07-29T00:14:55;99332.84;;;16.77;53.76
59545;BME280;45368;55.002;-1.592;2023-07-29T00:17:23;99322.76;;;17.24;54.01
59545;BME280;45368;55.002;-1.592;2023-07-29T00:19:50;99326.55;;;16.59;54.59
59545;BME280;45368;55.002;-1.592;2023-07-29T00:22:18;99322.02;;;16.83;54.27
59545;BME280;45368;55.002;-1.592;2023-07-29T00:24:51;99332.08;;;16.45;55.19
59545;BME280;45368;55.002;-1.592;2023-07-29T00:27:18;99334.00;;;16.32;54.97
59545;BME280;45368;55.002;-1.592;2023-07-29T00:29:46;99333.94;;;16.94;54.01
59545;BME280;45368;55.002;-1.592;2023-07-29T00:32:14;99336.99;;;16.89;54.43
59545;BME280;45368;55.002;-1.592;2023-07-29T00:34:41;99332.04;;;17.08;53.64
59545;BME280;45368;55.002;-1.592;2023-07-29T00:37:09;99333.59;;;17.44;52.62
59545;BME280;45368;55.002;-1.592;2023-07-29T00:39:37;99331.98;;;17.62;52.37
59545;BME280;45368;55.002;-1.592;2023-07-29T00:42:05;99332.54;;;17.57;52.55
59545;BME280;45368;55.002;-1.592;2023-07-29T00:44:32;99333.71;;;17.72;52.21
59545;BME280;45368;55.002;-1.592;2023-07-29T00:47:01;99324.17;;;17.21;53.58
59545;BME280;45368;55.002;-1.592;2023-07-29T00:49:29;99322.33;;;17.35;52.49
59545;BME280;45368;55.002;-1.592;2023-07-29T00:51:57;99327.42;;;17.26;53.42
59545;BME280;45368;55.002;-1.592;2023-07-29T00:54:24;99319.45;;;17.22;53.67
59545;BME280;45368;55.002;-1.592;2023-07-29T00:56:52;99321.28;;;17.42;52.70
59545;BME280;45368;55.002;-1.592;2023-07-29T00:59:18;99318.34;;;17.03;53.67
59545;BME280;45368;55.002;-1.592;2023-07-29T01:01:46;99319.58;;;17.72;52.56
59545;BME280;45368;55.002;-1.592;2023-07-29T01:04:14;99317.01;;;16.25;55.04
59545;BME280;45368;55.002;-1.592;2023-07-29T01:06:57;99306.77;;;17.48;53.05
59545;BME280;45368;55.002;-1.592;2023-07-29T01:09:43;99303.67;;;16.33;54.43
59545;BME280;45368;55.002;-1.592;2023-07-29T01:12:19;99304.09;;;16.08;54.73
59545;BME280;45368;55.002;-1.592;2023-07-29T01:14:54;99305.52;;;16.14;55.05
59545;BME280;45368;55.002;-1.592;2023-07-29T01:17:25;99292.83;;;17.31;52.18
59545;BME280;45368;55.002;-1.592;2023-07-29T01:20:00;99292.88;;;16.50;52.33
59545;BME280;45368;55.002;-1.592;2023-07-29T01:22:28;99288.43;;;16.32;53.64
59545;BME280;45368;55.002;-1.592;2023-07-29T01:24:55;99285.45;;;15.92;54.02
59545;BME280;45368;55.002;-1.592;2023-07-29T01:27:23;99284.40;;;16.74;52.81
59545;BME280;45368;55.002;-1.592;2023-07-29T01:29:50;99281.39;;;16.36;52.41
59545;BME280;45368;55.002;-1.592;2023-07-29T01:32:25;99277.18;;;15.32;53.59
59545;BME280;45368;55.002;-1.592;2023-07-29T01:35:00;99280.63;;;16.53;52.89
59545;BME280;45368;55.002;-1.592;2023-07-29T01:37:33;99280.83;;;16.70;51.18
59545;BME280;45368;55.002;-1.592;2023-07-29T01:40:01;99275.67;;;16.52;50.57
59545;BME280;45368;55.002;-1.592;2023-07-29T01:42:30;99271.43;;;16.11;50.57
59545;BME280;45368;55.002;-1.592;2023-07-29T01:44:58;99263.45;;;16.33;50.96
59545;BME280;45368;55.002;-1.592;2023-07-29T01:47:26;99258.29;;;15.83;51.43
59545;BME280;45368;55.002;-1.592;2023-07-29T01:49:54;99262.14;;;16.57;50.37
59545;BME280;45368;55.002;-1.592;2023-07-29T01:52:21;99256.18;;;16.70;49.67
59545;BME280;45368;55.002;-1.592;2023-07-29T01:54:49;99253.87;;;17.06;48.62
59545;BME280;45368;55.002;-1.592;2023-07-29T01:57:16;99255.09;;;17.41;48.39
59545;BME280;45368;55.002;-1.592;2023-07-29T01:59:44;99250.35;;;16.32;49.86
59545;BME280;45368;55.002;-1.592;2023-07-29T02:02:12;99241.76;;;16.58;49.75
59545;BME280;45368;55.002;-1.592;2023-07-29T02:04:39;99245.46;;;16.46;50.31
59545;BME280;45368;55.002;-1.592;2023-07-29T02:07:07;99263.79;;;15.62;52.44
59545;BME280;45368;55.002;-1.592;2023-07-29T02:09:35;99265.09;;;16.01;52.75
59545;BME280;45368;55.002;-1.592;2023-07-29T02:12:03;99263.33;;;15.85;51.48
59545;BME280;45368;55.002;-1.592;2023-07-29T02:14:30;99263.42;;;15.54;52.01
59545;BME280;45368;55.002;-1.592;2023-07-29T02:16:58;99265.00;;;15.61;52.59
59545;BME280;45368;55.002;-1.592;2023-07-29T02:19:26;99262.77;;;15.75;52.12
59545;BME280;45368;55.002;-1.592;2023-07-29T02:21:53;99252.63;;;16.13;51.11
59545;BME280;45368;55.002;-1.592;2023-07-29T02:24:20;99248.85;;;17.17;49.85
59545;BME280;45368;55.002;-1.592;2023-07-29T02:26:48;99248.76;;;16.13;50.55
59545;BME280;45368;55.002;-1.592;2023-07-29T02:29:16;99240.48;;;15.62;51.06
59545;BME280;45368;55.002;-1.592;2023-07-29T02:31:42;99236.70;;;16.05;51.25
59545;BME280;45368;55.002;-1.592;2023-07-29T02:34:09;99228.28;;;16.15;50.05
59545;BME280;45368;55.002;-1.592;2023-07-29T02:36:37;99228.56;;;16.42;49.99
59545;BME280;45368;55.002;-1.592;2023-07-29T02:39:05;99218.09;;;18.12;48.26
59545;BME280;45368;55.002;-1.592;2023-07-29T02:41:32;99215.17;;;16.61;48.73
59545;BME280;45368;55.002;-1.592;2023-07-29T02:44:01;99216.86;;;16.68;48.92
59545;BME280;45368;55.002;-1.592;2023-07-29T02:46:28;99224.71;;;15.92;50.57
59545;BME280;45368;55.002;-1.592;2023-07-29T02:48:55;99228.07;;;17.16;48.99
59545;BME280;45368;55.002;-1.592;2023-07-29T02:51:23;99221.62;;;16.94;49.76
59545;BME280;45368;55.002;-1.592;2023-07-29T02:53:50;99219.70;;;16.42;49.60
59545;BME280;45368;55.002;-1.592;2023-07-29T02:56:18;99214.41;;;16.19;50.01
59545;BME280;45368;55.002;-1.592;2023-07-29T02:58:45;99206.60;;;17.40;48.60
59545;BME280;45368;55.002;-1.592;2023-07-29T03:01:13;99211.09;;;16.62;49.40
59545;BME280;45368;55.002;-1.592;2023-07-29T03:03:41;99208.63;;;16.94;49.11
59545;BME280;45368;55.002;-1.592;2023-07-29T03:06:10;99207.77;;;17.80;47.65
59545;BME280;45368;55.002;-1.592;2023-07-29T03:08:38;99210.23;;;17.54;47.36
59545;BME280;45368;55.002;-1.592;2023-07-29T03:11:06;99214.80;;;17.33;48.02
59545;BME280;45368;55.002;-1.592;2023-07-29T03:13:33;99204.96;;;18.16;46.52
59545;BME280;45368;55.002;-1.592;2023-07-29T03:16:05;99206.16;;;17.73;47.91
59545;BME280;45368;55.002;-1.592;2023-07-29T03:18:33;99202.79;;;17.23;48.35
59545;BME280;45368;55.002;-1.592;2023-07-29T03:21:00;99205.59;;;17.00;49.14
59545;BME280;45368;55.002;-1.592;2023-07-29T03:23:29;99201.81;;;17.15;49.22
59545;BME280;45368;55.002;-1.592;2023-07-29T03:25:57;99193.93;;;17.17;49.54
59545;BME280;45368;55.002;-1.592;2023-07-29T03:28:28;99196.92;;;17.09;48.95
59545;BME280;45368;55.002;-1.592;2023-07-29T03:30:55;99204.07;;;16.45;51.30
59545;BME280;45368;55.002;-1.592;2023-07-29T03:33:24;99193.69;;;18.06;48.66
59545;BME280;45368;55.002;-1.592;2023-07-29T03:35:51;99192.05;;;17.62;48.90
59545;BME280;45368;55.002;-1.592;2023-07-29T03:38:19;99194.30;;;17.03;49.55
59545;BME280;45368;55.002;-1.592;2023-07-29T03:40:46;99190.42;;;17.04;49.83
59545;BME280;45368;55.002;-1.592;2023-07-29T03:43:13;99182.10;;;17.93;48.35
59545;BME280;45368;55.002;-1.592;2023-07-29T03:45:41;99185.06;;;17.79;48.28
59545;BME280;45368;55.002;-1.592;2023-07-29T03:48:08;99186.95;;;18.85;47.37
59545;BME280;45368;55.002;-1.592;2023-07-29T03:50:36;99193.60;;;17.41;48.98
59545;BME280;45368;55.002;-1.592;2023-07-29T03:53:04;99189.97;;;17.74;48.05
59545;BME280;45368;55.002;-1.592;2023-07-29T03:55:31;99191.95;;;16.95;49.71
59545;BME280;45368;55.002;-1.592;2023-07-29T03:57:59;99185.37;;;17.74;48.43
59545;BME280;45368;55.002;-1.592;2023-07-29T04:00:27;99186.86;;;16.87;50.42
59545;BME280;45368;55.002;-1.592;2023-07-29T04:02:54;99188.09;;;16.90;49.89
59545;BME280;45368;55.002;-1.592;2023-07-29T04:05:22;99186.53;;;17.98;48.74
59545;BME280;45368;55.002;-1.592;2023-07-29T04:07:50;99200.20;;;16.49;50.68
59545;BME280;45368;55.002;-1.592;2023-07-29T04:10:17;99192.74;;;17.58;49.89
59545;BME280;45368;55.002;-1.592;2023-07-29T04:12:45;99197.32;;;17.53;49.39
59545;BME280;45368;55.002;-1.592;2023-07-29T04:15:13;99195.63;;;17.45;49.73
59545;BME280;45368;55.002;-1.592;2023-07-29T04:17:40;99192.17;;;18.41;48.40
59545;BME280;45368;55.002;-1.592;2023-07-29T04:20:09;99186.05;;;18.04;48.33
59545;BME280;45368;55.002;-1.592;2023-07-29T04:22:37;99196.24;;;16.48;51.18
59545;BME280;45368;55.002;-1.592;2023-07-29T04:25:06;99190.01;;;17.57;48.92
59545;BME280;45368;55.002;-1.592;2023-07-29T04:27:33;99190.05;;;17.35;49.45
59545;BME280;45368;55.002;-1.592;2023-07-29T04:30:01;99191.92;;;16.96;50.29
59545;BME280;45368;55.002;-1.592;2023-07-29T04:32:29;99194.17;;;16.77;51.36
59545;BME280;45368;55.002;-1.592;2023-07-29T04:34:56;99193.48;;;16.66;51.82
59545;BME280;45368;55.002;-1.592;2023-07-29T04:37:23;99188.11;;;16.00;53.57
59545;BME280;45368;55.002;-1.592;2023-07-29T04:39:51;99188.48;;;15.95;52.88
59545;BME280;45368;55.002;-1.592;2023-07-29T04:42:19;99189.93;;;16.99;51.39
59545;BME280;45368;55.002;-1.592;2023-07-29T04:44:46;99189.49;;;16.55;51.84
59545;BME280;45368;55.002;-1.592;2023-07-29T04:47:14;99192.56;;;15.96;53.78
59545;BME280;45368;55.002;-1.592;2023-07-29T04:49:42;99191.19;;;16.60;53.11
59545;BME280;45368;55.002;-1.592;2023-07-29T04:52:09;99191.01;;;16.68;52.38
59545;BME280;45368;55.002;-1.592;2023-07-29T04:54:37;99191.71;;;16.15;54.02
59545;BME280;45368;55.002;-1.592;2023-07-29T04:57:04;99192.44;;;15.81;55.03
59545;BME280;45368;55.002;-1.592;2023-07-29T04:59:32;99182.14;;;16.23;54.52
59545;BME280;45368;55.002;-1.592;2023-07-29T05:01:59;99185.34;;;15.88;55.02
59545;BME280;45368;55.002;-1.592;2023-07-29T05:04:27;99190.32;;;15.67;55.27
59545;BME280;45368;55.002;-1.592;2023-07-29T05:06:55;99191.28;;;15.11;56.54
59545;BME280;45368;55.002;-1.592;2023-07-29T05:09:23;99183.48;;;15.67;55.96
59545;BME280;45368;55.002;-1.592;2023-07-29T05:11:50;99189.57;;;15.31;57.35
59545;BME280;45368;55.002;-1.592;2023-07-29T05:14:18;99182.22;;;15.78;56.30
59545;BME280;45368;55.002;-1.592;2023-07-29T05:16:45;99181.39;;;15.43;56.48
59545;BME280;45368;55.002;-1.592;2023-07-29T05:19:13;99182.21;;;15.54;56.24
59545;BME280;45368;55.002;-1.592;2023-07-29T05:21:41;99183.88;;;15.06;57.55
59545;BME280;45368;55.002;-1.592;2023-07-29T05:24:08;99184.47;;;15.72;57.16
59545;BME280;45368;55.002;-1.592;2023-07-29T05:26:36;99187.68;;;14.50;59.39
59545;BME280;45368;55.002;-1.592;2023-07-29T05:29:04;99187.51;;;14.85;59.22
59545;BME280;45368;55.002;-1.592;2023-07-29T05:31:31;99187.05;;;15.16;58.57
59545;BME280;45368;55.002;-1.592;2023-07-29T05:33:59;99185.83;;;15.51;57.45
59545;BME280;45368;55.002;-1.592;2023-07-29T05:36:26;99190.58;;;15.03;58.56
59545;BME280;45368;55.002;-1.592;2023-07-29T05:38:54;99194.48;;;14.43;60.28
59545;BME280;45368;55.002;-1.592;2023-07-29T05:41:22;99189.33;;;15.14;58.97
59545;BME280;45368;55.002;-1.592;2023-07-29T05:43:50;99192.40;;;15.05;59.26
59545;BME280;45368;55.002;-1.592;2023-07-29T05:46:17;99195.04;;;14.54;59.96
59545;BME280;45368;55.002;-1.592;2023-07-29T05:48:44;99189.75;;;15.03;59.06
59545;BME280;45368;55.002;-1.592;2023-07-29T05:51:11;99187.91;;;14.74;59.86
59545;BME280;45368;55.002;-1.592;2023-07-29T05:53:38;99188.16;;;15.20;58.88
59545;BME280;45368;55.002;-1.592;2023-07-29T05:56:06;99187.83;;;15.04;59.00
59545;BME280;45368;55.002;-1.592;2023-07-29T05:58:33;99189.27;;;15.56;57.71
59545;BME280;45368;55.002;-1.592;2023-07-29T06:01:00;99190.98;;;15.35;58.80
59545;BME280;45368;55.002;-1.592;2023-07-29T06:03:27;99191.22;;;15.79;58.45
59545;BME280;45368;55.002;-1.592;2023-07-29T06:05:54;99197.13;;;14.68;60.08
59545;BME280;45368;55.002;-1.592;2023-07-29T06:08:22;99191.79;;;15.14;59.35
59545;BME280;45368;55.002;-1.592;2023-07-29T06:10:50;99193.57;;;15.48;58.91
59545;BME280;45368;55.002;-1.592;2023-07-29T06:13:17;99194.03;;;14.80;61.01
59545;BME280;45368;55.002;-1.592;2023-07-29T06:15:45;99191.94;;;15.14;59.02
59545;BME280;45368;55.002;-1.592;2023-07-29T06:18:12;99193.92;;;15.30;58.62
59545;BME280;45368;55.002;-1.592;2023-07-29T06:20:40;99190.22;;;15.79;57.22
59545;BME280;45368;55.002;-1.592;2023-07-29T06:23:08;99191.85;;;16.46;55.63
59545;BME280;45368;55.002;-1.592;2023-07-29T06:25:35;99194.59;;;15.98;56.40
59545;BME280;45368;55.002;-1.592;2023-07-29T06:28:02;99198.96;;;15.73;57.75
59545;BME280;45368;55.002;-1.592;2023-07-29T06:30:30;99195.31;;;15.94;56.63
59545;BME280;45368;55.002;-1.592;2023-07-29T06:32:57;99197.01;;;16.14;56.25
59545;BME280;45368;55.002;-1.592;2023-07-29T06:35:25;99200.71;;;15.99;56.11
59545;BME280;45368;55.002;-1.592;2023-07-29T06:37:52;99203.82;;;16.11;55.74
59545;BME280;45368;55.002;-1.592;2023-07-29T06:40:18;99205.36;;;15.67;57.54
59545;BME280;45368;55.002;-1.592;2023-07-29T06:42:45;99208.59;;;15.38;57.52
59545;BME280;45368;55.002;-1.592;2023-07-29T06:45:12;99203.06;;;15.47;57.40
59545;BME280;45368;55.002;-1.592;2023-07-29T06:47:40;99197.91;;;15.50;57.49
59545;BME280;45368;55.002;-1.592;2023-07-29T06:50:08;99201.01;;;16.03;56.63
59545;BME280;45368;55.002;-1.592;2023-07-29T06:52:35;99205.40;;;16.45;56.03
59545;BME280;45368;55.002;-1.592;2023-07-29T06:55:03;99207.05;;;16.99;54.36
59545;BME280;45368;55.002;-1.592;2023-07-29T06:57:31;99205.15;;;17.06;53.64
59545;BME280;45368;55.002;-1.592;2023-07-29T06:59:59;99211.66;;;16.81;53.44
59545;BME280;45368;55.002;-1.592;2023-07-29T07:02:26;99211.27;;;16.76;53.29
59545;BME280;45368;55.002;-1.592;2023-07-29T07:04:54;99210.60;;;17.28;51.97
59545;BME280;45368;55.002;-1.592;2023-07-29T07:07:21;99214.97;;;16.62;51.75
59545;BME280;45368;55.002;-1.592;2023-07-29T07:09:49;99211.38;;;16.97;51.62
59545;BME280;45368;55.002;-1.592;2023-07-29T07:12:17;99215.25;;;16.66;51.85
59545;BME280;45368;55.002;-1.592;2023-07-29T07:14:45;99210.71;;;17.06;49.84
59545;BME280;45368;55.002;-1.592;2023-07-29T07:17:12;99212.18;;;15.86;53.27
59545;BME280;45368;55.002;-1.592;2023-07-29T07:19:40;99212.47;;;16.16;52.93
59545;BME280;45368;55.002;-1.592;2023-07-29T07:22:07;99214.58;;;16.66;51.54
59545;BME280;45368;55.002;-1.592;2023-07-29T07:24:35;99214.81;;;17.25;49.98
59545;BME280;45368;55.002;-1.592;2023-07-29T07:27:03;99213.67;;;18.63;48.57
59545;BME280;45368;55.002;-1.592;2023-07-29T07:29:30;99207.58;;;18.68;47.90
59545;BME280;45368;55.002;-1.592;2023-07-29T07:31:58;99206.90;;;19.03;47.43
59545;BME280;45368;55.002;-1.592;2023-07-29T07:34:26;99204.71;;;18.42;48.16
59545;BME280;45368;55.002;-1.592;2023-07-29T07:36:53;99205.47;;;19.13;45.74
59545;BME280;45368;55.002;-1.592;2023-07-29T07:39:21;99208.51;;;19.01;46.58
59545;BME280;45368;55.002;-1.592;2023-07-29T07:41:49;99206.66;;;18.77;45.75
59545;BME280;45368;55.002;-1.592;2023-07-29T07:44:16;99210.78;;;18.56;45.39
59545;BME280;45368;55.002;-1.592;2023-07-29T07:46:44;99209.69;;;18.64;45.08
59545;BME280;45368;55.002;-1.592;2023-07-29T07:49:11;99209.86;;;19.94;43.66
59545;BME280;45368;55.002;-1.592;2023-07-29T07:51:39;99209.33;;;19.38;43.68
59545;BME280;45368;55.002;-1.592;2023-07-29T07:54:07;99205.42;;;20.53;41.34
59545;BME280;45368;55.002;-1.592;2023-07-29T07:56:34;99211.83;;;21.16;39.54
59545;BME280;45368;55.002;-1.592;2023-07-29T07:59:02;99214.80;;;22.64;38.29
59545;BME280;45368;55.002;-1.592;2023-07-29T08:01:34;99207.85;;;24.37;35.09
59545;BME280;45368;55.002;-1.592;2023-07-29T08:04:02;99204.69;;;27.25;31.01
59545;BME280;45368;55.002;-1.592;2023-07-29T08:06:30;99205.96;;;25.68;31.38
59545;BME280;45368;55.002;-1.592;2023-07-29T08:08:58;99202.10;;;24.71;31.76
59545;BME280;45368;55.002;-1.592;2023-07-29T08:11:26;99202.60;;;23.41;34.13
59545;BME280;45368;55.002;-1.592;2023-07-29T08:13:53;99202.16;;;23.70;33.56
59545;BME280;45368;55.002;-1.592;2023-07-29T08:16:20;99203.85;;;22.67;35.13
59545;BME280;45368;55.002;-1.592;2023-07-29T08:18:48;99203.96;;;22.76;34.78
59545;BME280;45368;55.002;-1.592;2023-07-29T08:21:16;99209.74;;;21.19;38.23
59545;BME280;45368;55.002;-1.592;2023-07-29T08:23:43;99212.68;;;20.13;39.89
59545;BME280;45368;55.002;-1.592;2023-07-29T08:26:11;99212.30;;;20.52;40.53
59545;BME280;45368;55.002;-1.592;2023-07-29T08:28:39;99205.86;;;20.22;40.58
59545;BME280;45368;55.002;-1.592;2023-07-29T08:31:07;99202.20;;;20.63;40.54
59545;BME280;45368;55.002;-1.592;2023-07-29T08:33:35;99201.02;;;20.52;40.29
59545;BME280;45368;55.002;-1.592;2023-07-29T08:36:03;99200.40;;;20.73;39.38
59545;BME280;45368;55.002;-1.592;2023-07-29T08:38:31;99197.26;;;21.34;38.24
59545;BME280;45368;55.002;-1.592;2023-07-29T08:41:06;99202.57;;;19.95;38.74
59545;BME280;45368;55.002;-1.592;2023-07-29T08:43:39;99196.29;;;21.66;37.10
59545;BME280;45368;55.002;-1.592;2023-07-29T08:46:10;99195.16;;;22.30;35.79
59545;BME280;45368;55.002;-1.592;2023-07-29T08:48:41;99203.14;;;21.47;36.61
59545;BME280;45368;55.002;-1.592;2023-07-29T08:51:13;99190.73;;;22.01;35.78
59545;BME280;45368;55.002;-1.592;2023-07-29T08:53:50;99190.52;;;22.19;34.61
59545;BME280;45368;55.002;-1.592;2023-07-29T10:25:22;99208.79;;;18.28;48.11
59545;BME280;45368;55.002;-1.592;2023-07-29T10:34:06;99191.53;;;19.36;45.38
59545;BME280;45368;55.002;-1.592;2023-07-29T10:37:20;99201.93;;;19.80;43.35
59545;BME280;45368;55.002;-1.592;2023-07-29T10:40:45;99204.95;;;19.32;42.96
59545;BME280;45368;55.002;-1.592;2023-07-29T10:43:19;99200.28;;;19.21;43.88
59545;BME280;45368;55.002;-1.592;2023-07-29T10:46:17;99201.45;;;19.70;42.47
59545;BME280;45368;55.002;-1.592;2023-07-29T10:49:59;99201.42;;;18.96;41.82
59545;BME280;45368;55.002;-1.592;2023-07-29T10:53:02;99204.91;;;19.64;41.74
59545;BME280;45368;55.002;-1.592;2023-07-29T10:55:33;99195.99;;;18.95;40.13
59545;BME280;45368;55.002;-1.592;2023-07-29T10:58:21;99198.78;;;20.09;38.82
59545;BME280;45368;55.002;-1.592;2023-07-29T11:00:49;99200.31;;;20.25;39.68
59545;BME280;45368;55.002;-1.592;2023-07-29T11:03:18;99205.78;;;19.16;39.90
59545;BME280;45368;55.002;-1.592;2023-07-29T11:06:14;99201.69;;;19.55;40.58
59545;BME280;45368;55.002;-1.592;2023-07-29T11:08:53;99197.53;;;20.22;38.20
59545;BME280;45368;55.002;-1.592;2023-07-29T11:12:49;99199.25;;;19.67;39.19
59545;BME280;45368;55.002;-1.592;2023-07-29T11:15:23;99190.52;;;20.46;37.19
59545;BME280;45368;55.002;-1.592;2023-07-29T11:17:57;99190.75;;;21.60;36.11
59545;BME280;45368;55.002;-1.592;2023-07-29T11:20:26;99191.55;;;22.14;33.03
59545;BME280;45368;55.002;-1.592;2023-07-29T11:23:42;99183.71;;;23.02;31.53
59545;BME280;45368;55.002;-1.592;2023-07-29T11:26:14;99188.77;;;21.23;33.87
59545;BME280;45368;55.002;-1.592;2023-07-29T11:31:42;99189.55;;;20.57;36.39
59545;BME280;45368;55.002;-1.592;2023-07-29T11:37:15;99211.17;;;19.69;39.30
59545;BME280;45368;55.002;-1.592;2023-07-29T11:42:33;99211.05;;;19.80;38.73
59545;BME280;45368;55.002;-1.592;2023-07-29T12:22:01;99233.52;;;19.91;40.15
59545;BME280;45368;55.002;-1.592;2023-07-29T12:24:33;99234.23;;;19.37;40.06
59545;BME280;45368;55.002;-1.592;2023-07-29T12:28:37;99238.31;;;19.79;39.31
59545;BME280;45368;55.002;-1.592;2023-07-29T13:19:21;99234.32;;;19.83;39.13
59545;BME280;45368;55.002;-1.592;2023-07-29T14:40:48;99274.86;;;19.07;41.06
59545;BME280;45368;55.002;-1.592;2023-07-29T14:43:21;99275.56;;;19.41;41.45
59545;BME280;45368;55.002;-1.592;2023-07-29T15:22:48;99277.21;;;19.05;42.89
59545;BME280;45368;55.002;-1.592;2023-07-29T16:59:36;99286.47;;;18.23;47.68
59545;BME280;45368;55.002;-1.592;2023-07-29T17:04:04;99282.89;;;18.99;46.05
59545;BME280;45368;55.002;-1.592;2023-07-29T17:11:08;99285.30;;;17.97;48.40
59545;BME280;45368;55.002;-1.592;2023-07-29T17:13:35;99286.49;;;18.46;46.70
59545;BME280;45368;55.002;-1.592;2023-07-29T17:16:06;99285.34;;;18.49;45.99
59545;BME280;45368;55.002;-1.592;2023-07-29T17:18:37;99286.08;;;18.54;46.05
59545;BME280;45368;55.002;-1.592;2023-07-29T17:22:30;99285.16;;;18.44;47.33
59545;BME280;45368;55.002;-1.592;2023-07-29T17:24:59;99281.28;;;18.93;46.40
59545;BME280;45368;55.002;-1.592;2023-07-29T17:30:31;99281.57;;;18.64;46.76
59545;BME280;45368;55.002;-1.592;2023-07-29T17:35:27;99279.97;;;18.80;45.19
59545;BME280;45368;55.002;-1.592;2023-07-29T17:39:08;99285.62;;;17.70;46.57
59545;BME280;45368;55.002;-1.592;2023-07-29T17:41:36;99278.01;;;18.65;44.25
59545;BME280;45368;55.002;-1.592;2023-07-29T17:45:35;99283.55;;;18.33;44.52
59545;BME280;45368;55.002;-1.592;2023-07-29T17:49:29;99284.14;;;18.68;45.69
59545;BME280;45368;55.002;-1.592;2023-07-29T18:12:16;99313.27;;;18.38;47.63
59545;BME280;45368;55.002;-1.592;2023-07-29T18:14:49;99310.41;;;18.20;46.82
59545;BME280;45368;55.002;-1.592;2023-07-29T18:17:22;99309.81;;;18.29;46.20
59545;BME280;45368;55.002;-1.592;2023-07-29T18:19:51;99320.09;;;18.13;46.93
59545;BME280;45368;55.002;-1.592;2023-07-29T18:22:19;99316.16;;;18.12;47.51
59545;BME280;45368;55.002;-1.592;2023-07-29T18:24:47;99319.09;;;18.09;47.43
59545;BME280;45368;55.002;-1.592;2023-07-29T18:30:26;99320.19;;;18.75;46.80
59545;BME280;45368;55.002;-1.592;2023-07-29T18:33:23;99311.57;;;18.26;47.27
59545;BME280;45368;55.002;-1.592;2023-07-29T18:36:05;99316.04;;;18.05;47.62
59545;BME280;45368;55.002;-1.592;2023-07-29T18:38:33;99316.43;;;17.90;48.25
59545;BME280;45368;55.002;-1.592;2023-07-29T18:41:12;99315.19;;;17.91;48.16
59545;BME280;45368;55.002;-1.592;2023-07-29T18:43:48;99309.39;;;17.91;48.23
59545;BME280;45368;55.002;-1.592;2023-07-29T18:47:01;99314.93;;;17.29;49.35
59545;BME280;45368;55.002;-1.592;2023-07-29T18:49:37;99310.86;;;17.64;48.92
59545;BME280;45368;55.002;-1.592;2023-07-29T19:08:37;99315.61;;;18.29;48.91
59545;BME280;45368;55.002;-1.592;2023-07-29T19:11:05;99314.29;;;17.27;50.10
59545;BME280;45368;55.002;-1.592;2023-07-29T19:14:28;99316.64;;;17.44;49.36
59545;BME280;45368;55.002;-1.592;2023-07-29T19:17:03;99315.52;;;17.03;51.40
59545;BME280;45368;55.002;-1.592;2023-07-29T21:54:17;99337.21;;;16.85;50.94
59545;BME280;45368;55.002;-1.592;2023-07-29T21:56:47;99337.81;;;17.15;50.31
59545;BME280;45368;55.002;-1.592;2023-07-29T22:18:21;99350.70;;;15.17;57.11
59545;BME280;45368;55.002;-1.592;2023-07-29T22:21:50;99347.98;;;14.51;56.05
59545;BME280;45368;55.002;-1.592;2023-07-29T22:24:18;99342.60;;;15.48;55.19
59545;BME280;45368;55.002;-1.592;2023-07-29T22:26:45;99347.71;;;15.18;55.96
59545;BME280;45368;55.002;-1.592;2023-07-29T22:29:13;99348.52;;;15.02;55.86
59545;BME280;45368;55.002;-1.592;2023-07-29T22:31:41;99356.59;;;15.05;57.01
59545;BME280;45368;55.002;-1.592;2023-07-29T22:34:08;99355.57;;;15.51;55.93
59545;BME280;45368;55.002;-1.592;2023-07-29T22:36:35;99357.12;;;14.86;56.99
59545;BME280;45368;55.002;-1.592;2023-07-29T22:39:03;99355.76;;;14.84;56.51
59545;BME280;45368;55.002;-1.592;2023-07-29T22:41:30;99357.68;;;15.06;56.05
59545;BME280;45368;55.002;-1.592;2023-07-29T22:43:57;99354.22;;;15.65;55.17
59545;BME280;45368;55.002;-1.592;2023-07-29T22:46:25;99353.44;;;15.39;55.14
59545;BME280;45368;55.002;-1.592;2023-07-29T22:48:52;99354.25;;;15.81;54.71
59545;BME280;45368;55.002;-1.592;2023-07-29T22:51:19;99358.57;;;15.70;54.83
59545;BME280;45368;55.002;-1.592;2023-07-29T22:53:45;99361.23;;;15.40;55.53
59545;BME280;45368;55.002;-1.592;2023-07-29T22:56:12;99358.07;;;16.08;52.96
59545;BME280;45368;55.002;-1.592;2023-07-29T22:59:49;99355.30;;;16.03;52.80
59545;BME280;45368;55.002;-1.592;2023-07-29T23:02:33;99354.25;;;16.32;52.12
59545;BME280;45368;55.002;-1.592;2023-07-29T23:05:06;99355.09;;;16.10;51.86
59545;BME280;45368;55.002;-1.592;2023-07-29T23:07:34;99349.90;;;16.65;50.46
59545;BME280;45368;55.002;-1.592;2023-07-29T23:10:01;99349.12;;;17.20;48.75
59545;BME280;45368;55.002;-1.592;2023-07-29T23:12:44;99352.34;;;16.85;49.54
59545;BME280;45368;55.002;-1.592;2023-07-29T23:15:11;99344.90;;;16.75;48.56
59545;BME280;45368;55.002;-1.592;2023-07-29T23:17:40;99344.93;;;17.12;48.88
59545;BME280;45368;55.002;-1.592;2023-07-29T23:20:08;99342.91;;;17.16;48.58
59545;BME280;45368;55.002;-1.592;2023-07-29T23:22:36;99350.43;;;17.74;47.76
59545;BME280;45368;55.002;-1.592;2023-07-29T23:25:04;99348.43;;;16.82;49.73
59545;BME280;45368;55.002;-1.592;2023-07-29T23:27:31;99348.61;;;16.91;49.39
59545;BME280;45368;55.002;-1.592;2023-07-29T23:29:59;99349.43;;;16.76;50.28
59545;BME280;45368;55.002;-1.592;2023-07-29T23:32:27;99357.77;;;16.80;49.98
59545;BME280;45368;55.002;-1.592;2023-07-29T23:34:54;99361.82;;;16.75;50.53
59545;BME280;45368;55.002;-1.592;2023-07-29T23:37:21;99364.17;;;17.19;49.91
59545;BME280;45368;55.002;-1.592;2023-07-29T23:39:49;99371.84;;;17.80;48.50